Sherbro International Airport

Jump to: basic info | weather | comments

Related pages: nearby airports | nearby navaids | notams | map

Basic information (top)

Codes: BTE GFBN
Location: lon 7.532420, lat -12.518900, elev 14 ft / 4 m msl
Status: medium_airport
Scheduled airline service: yes
Links: Wikipedia Mobile

Weather (top)

Current conditions for Lungi International Airport 77nm (142km) NNW (rec'd 2014/12/18 13:00Z):

GFLL 181300Z 02007KT 8000 HZ NSC 30/19 Q1010

Airport forecast for Lungi International Airport 77nm (142km) NNW (rec'd 2014/12/18 12:00Z):

TAF COR GFLL 181000Z 1812/1918 24008KT 9999 BKN012 
      TEMPO 1818/1821 26010KT 9999 SCT012 
      TEMPO 1821/1903 12004KT 3000 BR BKN007 
      BECMG 1904/1906 03007KT 8000 
     FM190700 7000 HZ FEW016 SCT014

Latest comments (top)

No comments yet for Sherbro International Airport

More... (top)

See also NOTAMs and nearby airports and navaids, or visit the Sherbro International Airport page at the main OurAirports website..